sensor_id;sensor_type;location;lat;lon;timestamp;P1;durP1;ratioP1;P2;durP2;ratioP2
56629;SDS011;42502;40.732;-74.254;2022-11-15T00:00:51;15.63;;;6.47;;
56629;SDS011;42502;40.732;-74.254;2022-11-15T00:02:52;19.58;;;6.88;;
56629;SDS011;42502;40.732;-74.254;2022-11-15T00:04:56;20.15;;;6.95;;
56629;SDS011;42502;40.732;-74.254;2022-11-15T00:06:57;19.67;;;6.63;;
56629;SDS011;42502;40.732;-74.254;2022-11-15T00:08:58;15.88;;;6.20;;
56629;SDS011;42502;40.732;-74.254;2022-11-15T00:11:00;18.25;;;6.13;;
56629;SDS011;42502;40.732;-74.254;2022-11-15T00:13:04;21.05;;;6.90;;
56629;SDS011;42502;40.732;-74.254;2022-11-15T00:15:06;18.52;;;6.40;;
56629;SDS011;42502;40.732;-74.254;2022-11-15T00:17:07;21.63;;;6.53;;
56629;SDS011;42502;40.732;-74.254;2022-11-15T00:19:08;21.67;;;6.75;;
56629;SDS011;42502;40.732;-74.254;2022-11-15T00:21:12;24.17;;;8.25;;
56629;SDS011;42502;40.732;-74.254;2022-11-15T00:23:14;23.23;;;7.30;;
56629;SDS011;42502;40.732;-74.254;2022-11-15T00:25:15;34.10;;;11.50;;
56629;SDS011;42502;40.732;-74.254;2022-11-15T00:27:16;37.45;;;14.35;;
56629;SDS011;42502;40.732;-74.254;2022-11-15T00:29:16;46.40;;;14.40;;
56629;SDS011;42502;40.732;-74.254;2022-11-15T00:31:18;41.47;;;15.02;;
56629;SDS011;42502;40.732;-74.254;2022-11-15T00:33:18;84.00;;;28.38;;
56629;SDS011;42502;40.732;-74.254;2022-11-15T00:35:19;68.20;;;26.10;;
56629;SDS011;42502;40.732;-74.254;2022-11-15T00:37:21;80.43;;;28.73;;
56629;SDS011;42502;40.732;-74.254;2022-11-15T00:39:22;86.68;;;30.50;;
56629;SDS011;42502;40.732;-74.254;2022-11-15T00:41:23;83.90;;;30.77;;
56629;SDS011;42502;40.732;-74.254;2022-11-15T00:43:23;90.40;;;31.15;;
56629;SDS011;42502;40.732;-74.254;2022-11-15T00:45:24;93.85;;;32.95;;
56629;SDS011;42502;40.732;-74.254;2022-11-15T00:47:25;104.82;;;36.72;;
56629;SDS011;42502;40.732;-74.254;2022-11-15T00:49:26;91.88;;;33.90;;
56629;SDS011;42502;40.732;-74.254;2022-11-15T00:51:27;69.75;;;27.08;;
56629;SDS011;42502;40.732;-74.254;2022-11-15T00:53:28;92.60;;;33.40;;
56629;SDS011;42502;40.732;-74.254;2022-11-15T00:55:32;92.93;;;31.30;;
56629;SDS011;42502;40.732;-74.254;2022-11-15T00:57:33;77.10;;;29.15;;
56629;SDS011;42502;40.732;-74.254;2022-11-15T00:59:34;81.47;;;30.10;;
56629;SDS011;42502;40.732;-74.254;2022-11-15T01:01:38;62.88;;;26.35;;
56629;SDS011;42502;40.732;-74.254;2022-11-15T01:03:41;81.90;;;28.13;;
56629;SDS011;42502;40.732;-74.254;2022-11-15T01:05:42;74.65;;;27.77;;
56629;SDS011;42502;40.732;-74.254;2022-11-15T01:07:43;76.20;;;27.50;;
56629;SDS011;42502;40.732;-74.254;2022-11-15T01:09:44;69.85;;;26.48;;
56629;SDS011;42502;40.732;-74.254;2022-11-15T01:11:45;77.43;;;27.55;;
56629;SDS011;42502;40.732;-74.254;2022-11-15T01:13:45;75.82;;;26.13;;
56629;SDS011;42502;40.732;-74.254;2022-11-15T01:15:46;60.40;;;25.42;;
56629;SDS011;42502;40.732;-74.254;2022-11-15T01:17:47;72.68;;;25.75;;
56629;SDS011;42502;40.732;-74.254;2022-11-15T01:19:48;56.60;;;23.48;;
56629;SDS011;42502;40.732;-74.254;2022-11-15T01:21:49;60.13;;;25.08;;
56629;SDS011;42502;40.732;-74.254;2022-11-15T01:23:54;54.22;;;21.90;;
56629;SDS011;42502;40.732;-74.254;2022-11-15T01:25:59;59.03;;;23.02;;
56629;SDS011;42502;40.732;-74.254;2022-11-15T01:28:00;52.95;;;21.98;;
56629;SDS011;42502;40.732;-74.254;2022-11-15T01:30:06;54.38;;;21.58;;
56629;SDS011;42502;40.732;-74.254;2022-11-15T01:32:08;52.92;;;20.58;;
56629;SDS011;42502;40.732;-74.254;2022-11-15T01:34:09;46.28;;;20.27;;
56629;SDS011;42502;40.732;-74.254;2022-11-15T01:36:12;46.17;;;19.63;;
56629;SDS011;42502;40.732;-74.254;2022-11-15T01:38:15;47.15;;;19.73;;
56629;SDS011;42502;40.732;-74.254;2022-11-15T01:40:16;49.35;;;19.58;;
56629;SDS011;42502;40.732;-74.254;2022-11-15T01:42:19;46.30;;;18.48;;
56629;SDS011;42502;40.732;-74.254;2022-11-15T01:46:41;39.95;;;16.88;;
56629;SDS011;42502;40.732;-74.254;2022-11-15T01:48:47;38.40;;;16.25;;
56629;SDS011;42502;40.732;-74.254;2022-11-15T01:50:52;37.67;;;16.73;;
56629;SDS011;42502;40.732;-74.254;2022-11-15T01:52:52;34.85;;;15.77;;
56629;SDS011;42502;40.732;-74.254;2022-11-15T01:57:23;36.50;;;14.75;;
56629;SDS011;42502;40.732;-74.254;2022-11-15T01:59:24;33.85;;;12.75;;
56629;SDS011;42502;40.732;-74.254;2022-11-15T02:01:28;32.13;;;13.43;;
56629;SDS011;42502;40.732;-74.254;2022-11-15T02:03:42;26.67;;;12.00;;
56629;SDS011;42502;40.732;-74.254;2022-11-15T02:05:50;24.02;;;11.85;;
56629;SDS011;42502;40.732;-74.254;2022-11-15T02:07:52;29.48;;;11.10;;
56629;SDS011;42502;40.732;-74.254;2022-11-15T02:09:54;27.42;;;10.75;;
56629;SDS011;42502;40.732;-74.254;2022-11-15T02:11:56;33.70;;;10.55;;
56629;SDS011;42502;40.732;-74.254;2022-11-15T02:14:00;22.42;;;9.88;;
56629;SDS011;42502;40.732;-74.254;2022-11-15T02:18:22;19.35;;;8.82;;
56629;SDS011;42502;40.732;-74.254;2022-11-15T02:22:45;23.98;;;9.75;;
56629;SDS011;42502;40.732;-74.254;2022-11-15T02:37:21;15.23;;;5.32;;
56629;SDS011;42502;40.732;-74.254;2022-11-15T02:39:36;12.27;;;5.28;;
56629;SDS011;42502;40.732;-74.254;2022-11-15T02:41:53;12.25;;;4.70;;
56629;SDS011;42502;40.732;-74.254;2022-11-15T02:46:40;14.25;;;5.18;;
56629;SDS011;42502;40.732;-74.254;2022-11-15T02:49:07;10.02;;;4.60;;
56629;SDS011;42502;40.732;-74.254;2022-11-15T02:51:08;9.32;;;4.43;;
56629;SDS011;42502;40.732;-74.254;2022-11-15T02:53:10;9.32;;;3.55;;
56629;SDS011;42502;40.732;-74.254;2022-11-15T03:06:58;12.35;;;2.75;;
56629;SDS011;42502;40.732;-74.254;2022-11-15T03:09:09;11.50;;;3.40;;
56629;SDS011;42502;40.732;-74.254;2022-11-15T03:11:39;13.85;;;2.67;;
56629;SDS011;42502;40.732;-74.254;2022-11-15T03:16:06;13.75;;;2.67;;
56629;SDS011;42502;40.732;-74.254;2022-11-15T03:18:16;12.88;;;2.80;;
56629;SDS011;42502;40.732;-74.254;2022-11-15T03:20:22;12.63;;;3.22;;
56629;SDS011;42502;40.732;-74.254;2022-11-15T03:22:27;14.20;;;2.70;;
56629;SDS011;42502;40.732;-74.254;2022-11-15T03:24:31;18.92;;;2.42;;
56629;SDS011;42502;40.732;-74.254;2022-11-15T03:26:37;17.83;;;2.50;;
56629;SDS011;42502;40.732;-74.254;2022-11-15T03:28:49;17.38;;;2.25;;
56629;SDS011;42502;40.732;-74.254;2022-11-15T03:30:53;21.25;;;2.63;;
56629;SDS011;42502;40.732;-74.254;2022-11-15T03:32:57;10.63;;;2.42;;
56629;SDS011;42502;40.732;-74.254;2022-11-15T03:35:08;10.95;;;2.00;;
56629;SDS011;42502;40.732;-74.254;2022-11-15T03:37:12;20.08;;;2.28;;
56629;SDS011;42502;40.732;-74.254;2022-11-15T03:39:17;17.25;;;2.50;;
56629;SDS011;42502;40.732;-74.254;2022-11-15T03:41:22;17.60;;;2.75;;
56629;SDS011;42502;40.732;-74.254;2022-11-15T03:46:37;14.48;;;1.50;;
56629;SDS011;42502;40.732;-74.254;2022-11-15T03:48:18;19.50;;;1.73;;
56629;SDS011;42502;40.732;-74.254;2022-11-15T03:50:25;14.77;;;1.73;;
56629;SDS011;42502;40.732;-74.254;2022-11-15T03:52:30;13.52;;;1.77;;
56629;SDS011;42502;40.732;-74.254;2022-11-15T03:54:33;10.20;;;1.33;;
56629;SDS011;42502;40.732;-74.254;2022-11-15T03:56:34;17.75;;;1.42;;
56629;SDS011;42502;40.732;-74.254;2022-11-15T03:58:34;11.65;;;1.20;;
56629;SDS011;42502;40.732;-74.254;2022-11-15T04:00:35;14.18;;;1.40;;
56629;SDS011;42502;40.732;-74.254;2022-11-15T04:02:36;13.73;;;1.40;;
56629;SDS011;42502;40.732;-74.254;2022-11-15T04:04:39;21.67;;;2.15;;
56629;SDS011;42502;40.732;-74.254;2022-11-15T04:06:40;12.90;;;1.35;;
56629;SDS011;42502;40.732;-74.254;2022-11-15T04:08:44;15.82;;;1.20;;
56629;SDS011;42502;40.732;-74.254;2022-11-15T04:10:45;8.57;;;1.23;;
56629;SDS011;42502;40.732;-74.254;2022-11-15T04:12:48;6.72;;;0.80;;
56629;SDS011;42502;40.732;-74.254;2022-11-15T04:14:49;10.02;;;1.20;;
56629;SDS011;42502;40.732;-74.254;2022-11-15T04:17:07;7.90;;;1.23;;
56629;SDS011;42502;40.732;-74.254;2022-11-15T04:19:07;9.80;;;0.90;;
56629;SDS011;42502;40.732;-74.254;2022-11-15T04:21:30;6.97;;;0.90;;
56629;SDS011;42502;40.732;-74.254;2022-11-15T04:23:49;11.68;;;1.10;;
56629;SDS011;42502;40.732;-74.254;2022-11-15T04:26:25;7.13;;;0.95;;
56629;SDS011;42502;40.732;-74.254;2022-11-15T04:28:25;5.15;;;0.70;;
56629;SDS011;42502;40.732;-74.254;2022-11-15T04:30:26;11.40;;;0.93;;
56629;SDS011;42502;40.732;-74.254;2022-11-15T04:32:27;8.00;;;1.20;;
56629;SDS011;42502;40.732;-74.254;2022-11-15T04:34:28;8.10;;;0.90;;
56629;SDS011;42502;40.732;-74.254;2022-11-15T04:36:28;6.22;;;0.88;;
56629;SDS011;42502;40.732;-74.254;2022-11-15T04:38:48;6.05;;;0.80;;
56629;SDS011;42502;40.732;-74.254;2022-11-15T04:40:48;6.03;;;0.82;;
56629;SDS011;42502;40.732;-74.254;2022-11-15T04:42:49;7.97;;;0.60;;
56629;SDS011;42502;40.732;-74.254;2022-11-15T04:44:53;7.88;;;0.80;;
56629;SDS011;42502;40.732;-74.254;2022-11-15T04:46:53;9.95;;;1.55;;
56629;SDS011;42502;40.732;-74.254;2022-11-15T04:48:54;4.43;;;0.60;;
56629;SDS011;42502;40.732;-74.254;2022-11-15T04:50:58;3.83;;;0.63;;
56629;SDS011;42502;40.732;-74.254;2022-11-15T04:52:59;3.42;;;0.50;;
56629;SDS011;42502;40.732;-74.254;2022-11-15T04:55:03;9.23;;;0.80;;
56629;SDS011;42502;40.732;-74.254;2022-11-15T04:57:07;5.53;;;0.55;;
56629;SDS011;42502;40.732;-74.254;2022-11-15T04:59:07;1.50;;;0.50;;
56629;SDS011;42502;40.732;-74.254;2022-11-15T05:01:09;3.95;;;0.50;;
56629;SDS011;42502;40.732;-74.254;2022-11-15T05:03:11;4.22;;;0.50;;
56629;SDS011;42502;40.732;-74.254;2022-11-15T05:05:30;2.25;;;0.50;;
56629;SDS011;42502;40.732;-74.254;2022-11-15T05:07:31;2.25;;;0.40;;
56629;SDS011;42502;40.732;-74.254;2022-11-15T05:09:31;4.47;;;0.50;;
56629;SDS011;42502;40.732;-74.254;2022-11-15T05:11:32;3.42;;;0.50;;
56629;SDS011;42502;40.732;-74.254;2022-11-15T05:13:33;6.10;;;0.60;;
56629;SDS011;42502;40.732;-74.254;2022-11-15T05:15:34;3.22;;;0.60;;
56629;SDS011;42502;40.732;-74.254;2022-11-15T05:17:35;1.75;;;0.60;;
56629;SDS011;42502;40.732;-74.254;2022-11-15T05:19:36;2.70;;;0.40;;
56629;SDS011;42502;40.732;-74.254;2022-11-15T05:21:37;0.90;;;0.40;;
56629;SDS011;42502;40.732;-74.254;2022-11-15T05:23:38;3.22;;;0.30;;
56629;SDS011;42502;40.732;-74.254;2022-11-15T05:25:39;1.63;;;0.40;;
56629;SDS011;42502;40.732;-74.254;2022-11-15T05:27:40;2.85;;;0.30;;
56629;SDS011;42502;40.732;-74.254;2022-11-15T05:29:41;4.35;;;0.50;;
56629;SDS011;42502;40.732;-74.254;2022-11-15T05:31:42;3.80;;;0.50;;
56629;SDS011;42502;40.732;-74.254;2022-11-15T05:33:42;1.42;;;0.40;;
56629;SDS011;42502;40.732;-74.254;2022-11-15T05:35:48;1.83;;;0.30;;
56629;SDS011;42502;40.732;-74.254;2022-11-15T05:37:54;1.10;;;0.30;;
56629;SDS011;42502;40.732;-74.254;2022-11-15T05:39:58;1.45;;;0.40;;
56629;SDS011;42502;40.732;-74.254;2022-11-15T05:42:00;0.55;;;0.30;;
56629;SDS011;42502;40.732;-74.254;2022-11-15T05:44:23;2.15;;;0.30;;
56629;SDS011;42502;40.732;-74.254;2022-11-15T05:46:26;1.23;;;0.30;;
56629;SDS011;42502;40.732;-74.254;2022-11-15T05:48:28;2.08;;;0.32;;
56629;SDS011;42502;40.732;-74.254;2022-11-15T05:50:29;0.82;;;0.30;;
56629;SDS011;42502;40.732;-74.254;2022-11-15T05:52:31;1.60;;;0.30;;
56629;SDS011;42502;40.732;-74.254;2022-11-15T05:54:36;1.23;;;0.40;;
56629;SDS011;42502;40.732;-74.254;2022-11-15T05:56:37;1.10;;;0.20;;
56629;SDS011;42502;40.732;-74.254;2022-11-15T05:58:39;2.30;;;0.40;;
56629;SDS011;42502;40.732;-74.254;2022-11-15T06:00:46;1.77;;;0.30;;
56629;SDS011;42502;40.732;-74.254;2022-11-15T06:02:47;1.42;;;0.30;;
56629;SDS011;42502;40.732;-74.254;2022-11-15T06:04:48;0.30;;;0.20;;
56629;SDS011;42502;40.732;-74.254;2022-11-15T06:06:54;1.58;;;0.30;;
56629;SDS011;42502;40.732;-74.254;2022-11-15T06:08:55;1.58;;;0.20;;
56629;SDS011;42502;40.732;-74.254;2022-11-15T06:10:56;0.80;;;0.30;;
56629;SDS011;42502;40.732;-74.254;2022-11-15T06:12:57;0.68;;;0.30;;
56629;SDS011;42502;40.732;-74.254;2022-11-15T06:14:58;0.57;;;0.30;;
56629;SDS011;42502;40.732;-74.254;2022-11-15T06:16:59;0.57;;;0.20;;
56629;SDS011;42502;40.732;-74.254;2022-11-15T06:19:06;2.15;;;0.30;;
56629;SDS011;42502;40.732;-74.254;2022-11-15T06:21:07;2.45;;;0.20;;
56629;SDS011;42502;40.732;-74.254;2022-11-15T06:23:14;1.65;;;0.30;;
56629;SDS011;42502;40.732;-74.254;2022-11-15T06:25:15;0.85;;;0.30;;
56629;SDS011;42502;40.732;-74.254;2022-11-15T06:27:15;0.68;;;0.68;;
56629;SDS011;42502;40.732;-74.254;2022-11-15T06:29:16;0.77;;;0.20;;
56629;SDS011;42502;40.732;-74.254;2022-11-15T06:31:20;0.45;;;0.30;;
56629;SDS011;42502;40.732;-74.254;2022-11-15T06:33:21;0.60;;;0.20;;
56629;SDS011;42502;40.732;-74.254;2022-11-15T06:35:22;0.98;;;0.30;;
56629;SDS011;42502;40.732;-74.254;2022-11-15T06:37:22;0.30;;;0.20;;
56629;SDS011;42502;40.732;-74.254;2022-11-15T06:39:23;0.65;;;0.20;;
56629;SDS011;42502;40.732;-74.254;2022-11-15T06:41:24;0.30;;;0.20;;
56629;SDS011;42502;40.732;-74.254;2022-11-15T06:43:25;0.25;;;0.20;;
56629;SDS011;42502;40.732;-74.254;2022-11-15T06:45:26;0.30;;;0.25;;
56629;SDS011;42502;40.732;-74.254;2022-11-15T06:47:29;1.02;;;0.30;;
56629;SDS011;42502;40.732;-74.254;2022-11-15T06:49:30;0.60;;;0.20;;
56629;SDS011;42502;40.732;-74.254;2022-11-15T06:51:31;0.20;;;0.20;;
56629;SDS011;42502;40.732;-74.254;2022-11-15T06:53:32;0.60;;;0.20;;
56629;SDS011;42502;40.732;-74.254;2022-11-15T06:55:33;1.70;;;0.30;;
56629;SDS011;42502;40.732;-74.254;2022-11-15T06:57:34;0.30;;;0.20;;
56629;SDS011;42502;40.732;-74.254;2022-11-15T06:59:37;0.50;;;0.30;;
56629;SDS011;42502;40.732;-74.254;2022-11-15T07:01:38;1.10;;;0.30;;
56629;SDS011;42502;40.732;-74.254;2022-11-15T07:03:42;1.40;;;0.30;;
56629;SDS011;42502;40.732;-74.254;2022-11-15T07:05:50;0.47;;;0.20;;
56629;SDS011;42502;40.732;-74.254;2022-11-15T07:07:55;0.25;;;0.20;;
56629;SDS011;42502;40.732;-74.254;2022-11-15T07:09:56;0.25;;;0.17;;
56629;SDS011;42502;40.732;-74.254;2022-11-15T07:12:00;0.55;;;0.20;;
56629;SDS011;42502;40.732;-74.254;2022-11-15T07:14:03;0.65;;;0.20;;
56629;SDS011;42502;40.732;-74.254;2022-11-15T07:16:05;0.30;;;0.20;;
56629;SDS011;42502;40.732;-74.254;2022-11-15T07:18:07;0.30;;;0.10;;
56629;SDS011;42502;40.732;-74.254;2022-11-15T07:20:08;0.40;;;0.20;;
56629;SDS011;42502;40.732;-74.254;2022-11-15T07:22:10;0.52;;;0.20;;
56629;SDS011;42502;40.732;-74.254;2022-11-15T07:24:10;0.30;;;0.20;;
56629;SDS011;42502;40.732;-74.254;2022-11-15T07:26:11;1.27;;;0.50;;
56629;SDS011;42502;40.732;-74.254;2022-11-15T07:28:12;1.35;;;0.20;;
56629;SDS011;42502;40.732;-74.254;2022-11-15T07:30:16;0.30;;;0.15;;
56629;SDS011;42502;40.732;-74.254;2022-11-15T07:32:16;0.25;;;0.10;;
56629;SDS011;42502;40.732;-74.254;2022-11-15T07:34:17;0.95;;;0.20;;
56629;SDS011;42502;40.732;-74.254;2022-11-15T07:36:18;0.40;;;0.20;;
56629;SDS011;42502;40.732;-74.254;2022-11-15T07:38:25;1.98;;;0.30;;
56629;SDS011;42502;40.732;-74.254;2022-11-15T07:40:26;0.40;;;0.10;;
56629;SDS011;42502;40.732;-74.254;2022-11-15T07:42:30;0.28;;;0.20;;
56629;SDS011;42502;40.732;-74.254;2022-11-15T07:44:50;0.20;;;0.10;;
56629;SDS011;42502;40.732;-74.254;2022-11-15T07:46:56;0.60;;;0.20;;
56629;SDS011;42502;40.732;-74.254;2022-11-15T07:48:58;0.10;;;0.10;;
56629;SDS011;42502;40.732;-74.254;2022-11-15T07:51:02;0.47;;;0.20;;
56629;SDS011;42502;40.732;-74.254;2022-11-15T07:53:03;0.45;;;0.20;;
56629;SDS011;42502;40.732;-74.254;2022-11-15T07:55:04;0.65;;;0.20;;
56629;SDS011;42502;40.732;-74.254;2022-11-15T07:57:05;1.15;;;0.13;;
56629;SDS011;42502;40.732;-74.254;2022-11-15T07:59:10;0.20;;;0.10;;
56629;SDS011;42502;40.732;-74.254;2022-11-15T08:01:10;0.60;;;0.30;;
56629;SDS011;42502;40.732;-74.254;2022-11-15T08:03:13;0.40;;;0.30;;
56629;SDS011;42502;40.732;-74.254;2022-11-15T08:05:15;0.55;;;0.22;;
56629;SDS011;42502;40.732;-74.254;2022-11-15T08:07:19;0.20;;;0.10;;
56629;SDS011;42502;40.732;-74.254;2022-11-15T08:09:19;0.40;;;0.20;;
56629;SDS011;42502;40.732;-74.254;2022-11-15T08:11:20;1.27;;;0.20;;
56629;SDS011;42502;40.732;-74.254;2022-11-15T08:13:21;0.28;;;0.20;;
56629;SDS011;42502;40.732;-74.254;2022-11-15T08:15:22;1.13;;;0.20;;
56629;SDS011;42502;40.732;-74.254;2022-11-15T08:17:23;0.70;;;0.20;;
56629;SDS011;42502;40.732;-74.254;2022-11-15T08:19:24;0.35;;;0.20;;
56629;SDS011;42502;40.732;-74.254;2022-11-15T08:21:25;0.60;;;0.30;;
56629;SDS011;42502;40.732;-74.254;2022-11-15T08:23:26;0.30;;;0.20;;
56629;SDS011;42502;40.732;-74.254;2022-11-15T08:25:28;0.20;;;0.15;;
56629;SDS011;42502;40.732;-74.254;2022-11-15T08:27:29;0.40;;;0.20;;
56629;SDS011;42502;40.732;-74.254;2022-11-15T08:29:30;1.10;;;0.10;;
56629;SDS011;42502;40.732;-74.254;2022-11-15T08:31:31;0.20;;;0.10;;
56629;SDS011;42502;40.732;-74.254;2022-11-15T08:33:32;0.82;;;0.10;;
56629;SDS011;42502;40.732;-74.254;2022-11-15T08:35:36;1.00;;;0.20;;
56629;SDS011;42502;40.732;-74.254;2022-11-15T08:37:36;0.30;;;0.20;;
56629;SDS011;42502;40.732;-74.254;2022-11-15T08:39:37;0.40;;;0.20;;
56629;SDS011;42502;40.732;-74.254;2022-11-15T08:41:38;0.73;;;0.20;;
56629;SDS011;42502;40.732;-74.254;2022-11-15T08:43:39;0.20;;;0.20;;
56629;SDS011;42502;40.732;-74.254;2022-11-15T08:45:43;0.10;;;0.10;;
56629;SDS011;42502;40.732;-74.254;2022-11-15T08:47:44;0.22;;;0.20;;
56629;SDS011;42502;40.732;-74.254;2022-11-15T08:49:48;0.55;;;0.13;;
56629;SDS011;42502;40.732;-74.254;2022-11-15T08:51:49;0.40;;;0.20;;
56629;SDS011;42502;40.732;-74.254;2022-11-15T08:53:49;0.20;;;0.10;;
56629;SDS011;42502;40.732;-74.254;2022-11-15T08:55:50;0.30;;;0.20;;
56629;SDS011;42502;40.732;-74.254;2022-11-15T08:57:54;1.30;;;0.10;;
56629;SDS011;42502;40.732;-74.254;2022-11-15T08:59:58;0.28;;;0.20;;
56629;SDS011;42502;40.732;-74.254;2022-11-15T09:01:58;0.65;;;0.20;;
56629;SDS011;42502;40.732;-74.254;2022-11-15T09:03:59;1.42;;;0.17;;
56629;SDS011;42502;40.732;-74.254;2022-11-15T09:06:00;0.32;;;0.20;;
56629;SDS011;42502;40.732;-74.254;2022-11-15T09:08:01;0.30;;;0.20;;
56629;SDS011;42502;40.732;-74.254;2022-11-15T09:10:02;0.50;;;0.20;;
56629;SDS011;42502;40.732;-74.254;2022-11-15T09:12:03;0.13;;;0.10;;
56629;SDS011;42502;40.732;-74.254;2022-11-15T09:14:05;0.32;;;0.13;;
56629;SDS011;42502;40.732;-74.254;2022-11-15T09:16:06;0.20;;;0.10;;
56629;SDS011;42502;40.732;-74.254;2022-11-15T09:18:07;0.38;;;0.20;;
56629;SDS011;42502;40.732;-74.254;2022-11-15T09:20:08;0.10;;;0.10;;
56629;SDS011;42502;40.732;-74.254;2022-11-15T09:22:09;0.20;;;0.10;;
56629;SDS011;42502;40.732;-74.254;2022-11-15T09:24:16;1.10;;;0.20;;
56629;SDS011;42502;40.732;-74.254;2022-11-15T09:26:17;0.45;;;0.10;;
56629;SDS011;42502;40.732;-74.254;2022-11-15T09:28:18;0.28;;;0.20;;
56629;SDS011;42502;40.732;-74.254;2022-11-15T09:30:19;0.40;;;0.20;;
56629;SDS011;42502;40.732;-74.254;2022-11-15T09:32:20;0.38;;;0.20;;
56629;SDS011;42502;40.732;-74.254;2022-11-15T09:34:23;0.43;;;0.20;;
56629;SDS011;42502;40.732;-74.254;2022-11-15T09:36:24;0.28;;;0.20;;
56629;SDS011;42502;40.732;-74.254;2022-11-15T09:38:28;2.20;;;0.20;;
56629;SDS011;42502;40.732;-74.254;2022-11-15T09:40:30;0.25;;;0.17;;
56629;SDS011;42502;40.732;-74.254;2022-11-15T09:42:54;0.28;;;0.10;;
56629;SDS011;42502;40.732;-74.254;2022-11-15T09:49:38;0.28;;;0.20;;
56629;SDS011;42502;40.732;-74.254;2022-11-15T09:51:40;0.40;;;0.20;;
56629;SDS011;42502;40.732;-74.254;2022-11-15T09:58:10;0.30;;;0.20;;
56629;SDS011;42502;40.732;-74.254;2022-11-15T10:00:46;0.20;;;0.20;;
56629;SDS011;42502;40.732;-74.254;2022-11-15T10:05:01;0.30;;;0.20;;
56629;SDS011;42502;40.732;-74.254;2022-11-15T10:09:17;0.45;;;0.20;;
56629;SDS011;42502;40.732;-74.254;2022-11-15T10:11:35;0.30;;;0.20;;
56629;SDS011;42502;40.732;-74.254;2022-11-15T10:13:40;0.20;;;0.10;;
56629;SDS011;42502;40.732;-74.254;2022-11-15T10:15:49;0.22;;;0.10;;
56629;SDS011;42502;40.732;-74.254;2022-11-15T10:20:17;0.40;;;0.20;;
56629;SDS011;42502;40.732;-74.254;2022-11-15T10:24:27;1.60;;;0.20;;
56629;SDS011;42502;40.732;-74.254;2022-11-15T10:26:37;0.25;;;0.20;;
56629;SDS011;42502;40.732;-74.254;2022-11-15T10:28:37;0.38;;;0.20;;
56629;SDS011;42502;40.732;-74.254;2022-11-15T10:30:42;0.22;;;0.20;;
56629;SDS011;42502;40.732;-74.254;2022-11-15T10:32:47;1.00;;;0.13;;
56629;SDS011;42502;40.732;-74.254;2022-11-15T10:34:49;1.08;;;0.20;;
56629;SDS011;42502;40.732;-74.254;2022-11-15T10:36:57;0.73;;;0.10;;
56629;SDS011;42502;40.732;-74.254;2022-11-15T10:38:59;2.10;;;0.20;;
56629;SDS011;42502;40.732;-74.254;2022-11-15T10:41:06;2.30;;;0.22;;
56629;SDS011;42502;40.732;-74.254;2022-11-15T10:43:17;1.42;;;0.20;;
56629;SDS011;42502;40.732;-74.254;2022-11-15T10:45:22;0.57;;;0.20;;
56629;SDS011;42502;40.732;-74.254;2022-11-15T10:47:31;0.90;;;0.20;;
56629;SDS011;42502;40.732;-74.254;2022-11-15T10:49:33;1.38;;;0.20;;
56629;SDS011;42502;40.732;-74.254;2022-11-15T10:51:40;2.25;;;0.20;;
56629;SDS011;42502;40.732;-74.254;2022-11-15T10:53:44;0.30;;;0.20;;
56629;SDS011;42502;40.732;-74.254;2022-11-15T10:55:47;1.55;;;0.20;;
56629;SDS011;42502;40.732;-74.254;2022-11-15T10:58:18;1.52;;;0.20;;
56629;SDS011;42502;40.732;-74.254;2022-11-15T11:00:27;0.30;;;0.20;;
56629;SDS011;42502;40.732;-74.254;2022-11-15T11:06:57;1.23;;;0.40;;
56629;SDS011;42502;40.732;-74.254;2022-11-15T11:09:01;2.55;;;0.10;;
56629;SDS011;42502;40.732;-74.254;2022-11-15T11:11:04;0.35;;;0.10;;
56629;SDS011;42502;40.732;-74.254;2022-11-15T11:13:12;0.20;;;0.10;;
56629;SDS011;42502;40.732;-74.254;2022-11-15T11:15:34;3.63;;;0.30;;
56629;SDS011;42502;40.732;-74.254;2022-11-15T11:20:00;1.10;;;0.10;;
56629;SDS011;42502;40.732;-74.254;2022-11-15T11:24:53;2.60;;;0.20;;
56629;SDS011;42502;40.732;-74.254;2022-11-15T11:27:29;0.93;;;0.10;;
56629;SDS011;42502;40.732;-74.254;2022-11-15T11:34:52;0.40;;;0.10;;
56629;SDS011;42502;40.732;-74.254;2022-11-15T11:37:20;1.88;;;0.28;;
56629;SDS011;42502;40.732;-74.254;2022-11-15T11:46:56;4.82;;;0.20;;
56629;SDS011;42502;40.732;-74.254;2022-11-15T11:49:17;1.92;;;0.30;;
56629;SDS011;42502;40.732;-74.254;2022-11-15T11:51:34;3.75;;;0.22;;
56629;SDS011;42502;40.732;-74.254;2022-11-15T11:53:42;2.78;;;0.30;;
56629;SDS011;42502;40.732;-74.254;2022-11-15T11:55:56;2.90;;;0.30;;
56629;SDS011;42502;40.732;-74.254;2022-11-15T12:02:26;5.63;;;0.32;;
56629;SDS011;42502;40.732;-74.254;2022-11-15T12:04:34;0.85;;;0.30;;
56629;SDS011;42502;40.732;-74.254;2022-11-15T12:13:24;2.38;;;0.40;;
56629;SDS011;42502;40.732;-74.254;2022-11-15T12:15:43;1.23;;;0.30;;
56629;SDS011;42502;40.732;-74.254;2022-11-15T12:17:47;6.00;;;0.38;;
56629;SDS011;42502;40.732;-74.254;2022-11-15T12:19:48;6.40;;;0.30;;
56629;SDS011;42502;40.732;-74.254;2022-11-15T12:21:52;11.10;;;0.50;;
56629;SDS011;42502;40.732;-74.254;2022-11-15T12:23:59;5.75;;;0.40;;
56629;SDS011;42502;40.732;-74.254;2022-11-15T12:26:06;7.15;;;0.50;;
56629;SDS011;42502;40.732;-74.254;2022-11-15T12:28:22;4.25;;;0.43;;
56629;SDS011;42502;40.732;-74.254;2022-11-15T12:32:51;5.20;;;0.60;;
56629;SDS011;42502;40.732;-74.254;2022-11-15T12:34:56;5.00;;;0.60;;
56629;SDS011;42502;40.732;-74.254;2022-11-15T12:36:58;5.40;;;0.50;;
56629;SDS011;42502;40.732;-74.254;2022-11-15T12:39:03;5.82;;;0.40;;
56629;SDS011;42502;40.732;-74.254;2022-11-15T12:41:13;6.57;;;0.50;;
56629;SDS011;42502;40.732;-74.254;2022-11-15T12:45:28;1.67;;;0.47;;
56629;SDS011;42502;40.732;-74.254;2022-11-15T12:47:30;6.75;;;0.40;;
56629;SDS011;42502;40.732;-74.254;2022-11-15T12:53:47;4.20;;;0.30;;
56629;SDS011;42502;40.732;-74.254;2022-11-15T12:58:28;9.55;;;0.43;;
56629;SDS011;42502;40.732;-74.254;2022-11-15T13:00:55;4.45;;;0.40;;
56629;SDS011;42502;40.732;-74.254;2022-11-15T13:03:43;4.25;;;0.20;;
56629;SDS011;42502;40.732;-74.254;2022-11-15T13:11:41;3.42;;;0.30;;
56629;SDS011;42502;40.732;-74.254;2022-11-15T13:13:44;6.47;;;0.30;;
56629;SDS011;42502;40.732;-74.254;2022-11-15T13:17:56;1.88;;;0.28;;
56629;SDS011;42502;40.732;-74.254;2022-11-15T13:22:27;4.15;;;0.50;;
56629;SDS011;42502;40.732;-74.254;2022-11-15T13:25:00;3.53;;;0.30;;
56629;SDS011;42502;40.732;-74.254;2022-11-15T13:27:01;5.43;;;0.32;;
56629;SDS011;42502;40.732;-74.254;2022-11-15T13:29:02;4.07;;;0.30;;
56629;SDS011;42502;40.732;-74.254;2022-11-15T13:31:37;4.85;;;0.50;;
56629;SDS011;42502;40.732;-74.254;2022-11-15T13:33:38;3.53;;;0.25;;
56629;SDS011;42502;40.732;-74.254;2022-11-15T13:35:40;0.57;;;0.20;;
56629;SDS011;42502;40.732;-74.254;2022-11-15T13:37:42;1.75;;;0.30;;
56629;SDS011;42502;40.732;-74.254;2022-11-15T13:39:43;3.50;;;0.30;;
56629;SDS011;42502;40.732;-74.254;2022-11-15T13:41:50;4.32;;;0.40;;
56629;SDS011;42502;40.732;-74.254;2022-11-15T13:43:52;3.65;;;0.35;;
56629;SDS011;42502;40.732;-74.254;2022-11-15T13:46:07;2.67;;;0.40;;
56629;SDS011;42502;40.732;-74.254;2022-11-15T13:48:13;3.40;;;0.47;;
56629;SDS011;42502;40.732;-74.254;2022-11-15T13:50:14;7.97;;;0.50;;
56629;SDS011;42502;40.732;-74.254;2022-11-15T13:52:15;4.65;;;0.30;;
56629;SDS011;42502;40.732;-74.254;2022-11-15T13:54:35;4.65;;;0.32;;
56629;SDS011;42502;40.732;-74.254;2022-11-15T13:58:58;4.95;;;0.40;;
56629;SDS011;42502;40.732;-74.254;2022-11-15T14:01:03;3.53;;;0.40;;